Time;durP1;ratioP1;P1;durP2;ratioP2;P2;SDS_P1;SDS_P2;PMS_P1;PMS_P2;Temp;Humidity;BMP_temperature;BMP_pressure;BME280_temperature;BME280_humidity;BME280_pressure;Samples;Min_cycle;Max_cycle;Signal;HPM_P1;HPM_P2
2021/12/19 00:00:37;;;;;;;0.00;0.00;;;3.60;89.80;;;;;;4161227;28;20056;-60
2021/12/19 00:08:49;;;;;;;0.00;0.00;;;3.60;89.70;;;;;;4177964;28;20060;-60
2021/12/19 00:11:11;;;;;;;0.00;0.00;;;3.70;89.60;;;;;;4191551;28;20048;-61
2021/12/19 00:13:34;;;;;;;0.00;0.00;;;3.60;89.80;;;;;;4177875;28;20474;-60
2021/12/19 00:15:57;;;;;;;0.00;0.00;;;3.60;90.00;;;;;;4191490;28;20561;-60
2021/12/19 00:18:19;;;;;;;0.00;0.00;;;3.60;90.00;;;;;;4177666;28;20552;-59
2021/12/19 00:20:42;;;;;;;0.00;0.00;;;3.60;90.00;;;;;;4177456;28;20442;-59
2021/12/19 00:23:25;;;;;;;0.00;0.00;;;3.60;90.00;;;;;;4191719;28;20383;-62
2021/12/19 00:25:47;;;;;;;0.00;0.00;;;3.60;89.90;;;;;;4177256;28;20052;-61
2021/12/19 00:28:10;;;;;;;0.00;0.00;;;3.70;90.00;;;;;;4177823;28;20654;-60
2021/12/19 00:30:32;;;;;;;0.00;0.00;;;3.60;90.00;;;;;;4177618;28;20065;-61
2021/12/19 00:32:55;;;;;;;0.00;0.00;;;3.70;90.00;;;;;;4177692;28;20158;-59
2021/12/19 00:35:19;;;;;;;0.00;0.00;;;3.60;90.00;;;;;;4177525;28;20132;-59
2021/12/19 00:37:41;;;;;;;0.00;0.00;;;3.60;90.00;;;;;;4175355;28;20060;-60
2021/12/19 00:40:05;;;;;;;0.00;0.00;;;3.70;89.90;;;;;;4147486;28;20414;-60
2021/12/19 00:42:35;;;;;;;0.00;0.00;;;3.70;89.60;;;;;;4160975;28;20041;-59
2021/12/19 00:45:05;;;;;;;0.00;0.00;;;3.80;89.20;;;;;;4160980;28;20140;-59
2021/12/19 00:47:28;;;;;;;0.00;0.00;;;3.90;88.90;;;;;;4161240;28;20060;-60
2021/12/19 00:49:51;;;;;;;0.00;0.00;;;3.80;88.50;;;;;;4160997;28;20086;-58
2021/12/19 00:52:33;;;;;;;0.00;0.00;;;3.70;88.70;;;;;;4160924;28;20045;-59
2021/12/19 00:54:56;;;;;;;0.00;0.00;;;3.60;89.20;;;;;;4161197;28;20061;-59
2021/12/19 00:57:19;;;;;;;0.00;0.00;;;3.50;89.70;;;;;;4174759;28;20088;-59
2021/12/19 00:59:41;;;;;;;0.00;0.00;;;3.40;90.30;;;;;;4161151;28;20188;-60
2021/12/19 01:02:04;;;;;;;0.00;0.00;;;3.20;90.60;;;;;;4174145;28;20056;-60
2021/12/19 01:04:27;;;;;;;0.00;0.00;;;3.10;90.70;;;;;;4174923;28;20068;-60
2021/12/19 01:06:49;;;;;;;0.00;0.00;;;3.20;90.70;;;;;;4160862;28;20049;-60
2021/12/19 01:09:14;;;;;;;0.00;0.00;;;3.20;90.60;;;;;;4174972;28;20571;-60
2021/12/19 01:11:38;;;;;;;0.00;0.00;;;3.20;90.70;;;;;;4160678;28;20076;-60
2021/12/19 01:14:02;;;;;;;0.00;0.00;;;3.30;90.60;;;;;;4188172;28;20422;-60
2021/12/19 01:16:24;;;;;;;0.00;0.00;;;3.30;90.50;;;;;;4166162;28;20136;-60
2021/12/19 01:18:47;;;;;;;0.00;0.00;;;3.50;90.30;;;;;;4168957;28;20045;-60
2021/12/19 01:21:09;;;;;;;0.00;0.00;;;3.50;90.20;;;;;;4160630;28;20655;-60
2021/12/19 01:23:32;;;;;;;0.00;0.00;;;3.50;90.10;;;;;;4160979;28;20553;-60
2021/12/19 01:25:54;;;;;;;0.00;0.00;;;3.30;90.20;;;;;;4174453;28;20132;-60
2021/12/19 01:28:17;;;;;;;0.00;0.00;;;3.20;90.50;;;;;;4160730;28;20044;-59
2021/12/19 01:30:40;;;;;;;0.00;0.00;;;3.10;90.70;;;;;;4146859;28;20050;-60
2021/12/19 01:33:05;;;;;;;0.00;0.00;;;3.00;90.90;;;;;;4147174;28;20050;-59
2021/12/19 01:35:28;;;;;;;0.00;0.00;;;3.00;90.80;;;;;;4174776;28;20065;-59
2021/12/19 01:37:51;;;;;;;0.00;0.00;;;3.00;90.60;;;;;;4160349;28;20655;-60
2021/12/19 01:40:17;;;;;;;0.00;0.00;;;3.20;90.50;;;;;;4160983;28;20038;-60
2021/12/19 01:42:42;;;;;;;0.00;0.00;;;3.20;90.30;;;;;;4160619;28;20073;-60
2021/12/19 01:45:09;;;;;;;0.00;0.00;;;3.10;90.20;;;;;;4160606;28;20053;-60
2021/12/19 01:47:31;;;;;;;0.00;0.00;;;3.00;90.40;;;;;;4160805;28;20080;-60
2021/12/19 01:49:55;;;;;;;0.00;0.00;;;3.10;90.40;;;;;;4175608;28;20494;-60
2021/12/19 01:52:18;;;;;;;0.00;0.00;;;3.20;90.40;;;;;;4160664;28;20487;-59
2021/12/19 01:54:41;;;;;;;0.00;0.00;;;3.30;90.30;;;;;;4160779;28;20124;-60
2021/12/19 01:57:03;;;;;;;0.00;0.00;;;3.50;90.20;;;;;;4174550;28;20144;-60
2021/12/19 01:59:26;;;;;;;0.00;0.00;;;3.50;90.00;;;;;;4160714;28;20415;-59
2021/12/19 02:01:54;;;;;;;0.00;0.00;;;3.40;90.10;;;;;;4176184;28;20056;-60
2021/12/19 02:04:18;;;;;;;0.00;0.00;;;3.20;90.20;;;;;;4174441;28;20470;-60
2021/12/19 02:06:41;;;;;;;0.00;0.00;;;3.10;90.60;;;;;;4174419;28;20159;-59
2021/12/19 02:09:07;;;;;;;0.00;0.00;;;3.10;90.80;;;;;;4174452;28;20136;-60
2021/12/19 02:11:31;;;;;;;0.00;0.00;;;3.10;90.80;;;;;;4160251;28;20053;-59
2021/12/19 02:13:53;;;;;;;0.00;0.00;;;3.00;90.90;;;;;;4190611;28;20395;-60
2021/12/19 02:16:16;;;;;;;0.00;0.00;;;3.00;91.00;;;;;;4177075;28;20048;-60
2021/12/19 02:18:39;;;;;;;0.00;0.00;;;3.10;90.80;;;;;;4176986;28;20130;-61
2021/12/19 02:21:02;;;;;;;0.00;0.00;;;3.20;90.80;;;;;;4176679;28;20049;-61
2021/12/19 02:23:26;;;;;;;0.00;0.00;;;3.20;90.80;;;;;;4176997;28;20470;-60
2021/12/19 02:25:49;;;;;;;0.00;0.00;;;3.20;90.80;;;;;;4177757;28;20080;-60
2021/12/19 02:28:12;;;;;;;0.00;0.00;;;3.30;90.70;;;;;;4179934;28;20048;-60
2021/12/19 02:30:34;;;;;;;0.00;0.00;;;3.40;90.60;;;;;;4179973;28;20041;-60
2021/12/19 02:32:57;;;;;;;0.00;0.00;;;3.40;90.50;;;;;;4180010;28;20414;-59
2021/12/19 02:35:25;;;;;;;0.00;0.00;;;3.60;90.40;;;;;;4179816;28;20484;-60
2021/12/19 02:38:13;;;;;;;0.00;0.00;;;3.60;90.20;;;;;;4179354;28;20124;-60
2021/12/19 02:48:17;;;;;;;0.00;0.00;;;3.70;90.00;;;;;;4162723;28;19921;-59
2021/12/19 02:50:50;;;;;;;0.00;0.00;;;3.60;89.70;;;;;;4162773;28;20046;-59
2021/12/19 02:53:14;;;;;;;0.00;0.00;;;3.40;90.10;;;;;;4163058;28;20049;-59
2021/12/19 02:55:36;;;;;;;0.00;0.00;;;3.30;90.50;;;;;;4176781;28;20051;-61
2021/12/19 02:57:58;;;;;;;0.00;0.00;;;3.40;90.50;;;;;;4164213;28;20060;-61
2021/12/19 03:00:26;;;;;;;0.00;0.00;;;3.50;90.30;;;;;;4179531;28;20118;-61
2021/12/19 03:02:49;;;;;;;0.00;0.00;;;3.50;90.30;;;;;;4193050;28;20051;-61
2021/12/19 03:05:11;;;;;;;0.00;0.00;;;3.40;90.30;;;;;;4179405;28;20176;-60
2021/12/19 03:07:39;;;;;;;0.00;0.00;;;3.30;90.60;;;;;;4179231;28;20053;-60
2021/12/19 03:10:46;;;;;;;0.00;0.00;;;3.20;90.60;;;;;;4179145;28;20200;-61
2021/12/19 03:18:10;;;;;;;0.00;0.00;;;3.40;90.30;;;;;;4178598;28;20045;-61
2021/12/19 03:20:34;;;;;;;0.00;0.00;;;3.20;90.70;;;;;;4179209;28;20088;-60
2021/12/19 03:22:58;;;;;;;0.00;0.00;;;3.10;90.90;;;;;;4165229;28;20060;-60
2021/12/19 03:25:21;;;;;;;0.00;0.00;;;3.10;91.10;;;;;;4178981;28;20151;-61
2021/12/19 03:27:43;;;;;;;0.00;0.00;;;3.10;91.20;;;;;;4176324;28;20053;-61
2021/12/19 03:30:07;;;;;;;0.00;0.00;;;3.00;91.10;;;;;;4175836;28;20132;-60
2021/12/19 03:32:29;;;;;;;0.00;0.00;;;3.00;91.00;;;;;;4148483;28;20046;-60
2021/12/19 03:34:51;;;;;;;0.00;0.00;;;3.00;91.10;;;;;;4162338;28;20396;-60
2021/12/19 03:37:14;;;;;;;0.00;0.00;;;3.10;91.10;;;;;;4161345;28;20045;-60
2021/12/19 03:39:47;;;;;;;0.00;0.00;;;3.00;91.20;;;;;;4162317;28;20049;-60
2021/12/19 03:42:12;;;;;;;0.00;0.00;;;2.90;91.10;;;;;;4167949;28;20067;-61
2021/12/19 03:44:34;;;;;;;0.00;0.00;;;2.90;91.20;;;;;;4162165;28;20049;-60
2021/12/19 03:46:57;;;;;;;0.00;0.00;;;2.80;91.40;;;;;;4161929;28;20060;-60
2021/12/19 03:49:19;;;;;;;0.00;0.00;;;2.90;91.40;;;;;;4162116;28;20045;-60
2021/12/19 03:51:42;;;;;;;0.00;0.00;;;2.80;91.30;;;;;;4167883;28;20449;-60
2021/12/19 03:54:04;;;;;;;0.00;0.00;;;2.90;91.10;;;;;;4161672;28;20053;-61
2021/12/19 03:56:26;;;;;;;0.00;0.00;;;2.90;91.00;;;;;;4161921;28;20448;-60
2021/12/19 03:58:51;;;;;;;0.00;0.00;;;2.90;90.80;;;;;;4162119;28;20042;-60
2021/12/19 04:01:13;;;;;;;0.00;0.00;;;3.00;90.70;;;;;;4161805;28;20053;-61
2021/12/19 04:03:36;;;;;;;0.00;0.00;;;3.00;90.60;;;;;;4148483;28;20153;-61
2021/12/19 04:05:59;;;;;;;0.00;0.00;;;3.10;90.70;;;;;;4191846;28;20060;-61
2021/12/19 04:08:21;;;;;;;0.00;0.00;;;3.00;90.40;;;;;;4178465;28;20052;-62
2021/12/19 04:10:46;;;;;;;0.00;0.00;;;2.90;90.20;;;;;;4192064;28;20049;-61
2021/12/19 04:13:08;;;;;;;0.00;0.00;;;2.80;90.30;;;;;;4178416;28;20048;-61
2021/12/19 04:15:31;;;;;;;0.00;0.00;;;2.90;90.10;;;;;;4178432;28;20049;-60
2021/12/19 04:17:53;;;;;;;0.00;0.00;;;2.90;90.00;;;;;;4177866;28;20083;-61
2021/12/19 04:20:18;;;;;;;0.00;0.00;;;2.80;89.90;;;;;;4164586;28;20041;-60
2021/12/19 04:22:41;;;;;;;0.00;0.00;;;2.90;89.90;;;;;;4178206;28;20131;-60
2021/12/19 04:25:04;;;;;;;0.00;0.00;;;2.90;90.00;;;;;;4178222;28;20107;-60
2021/12/19 04:27:27;;;;;;;0.00;0.00;;;2.90;90.10;;;;;;4178170;28;20505;-60
2021/12/19 04:29:50;;;;;;;0.00;0.00;;;3.00;90.20;;;;;;4177860;28;20044;-60
2021/12/19 04:32:13;;;;;;;0.00;0.00;;;2.90;90.40;;;;;;4177928;28;20103;-60
2021/12/19 04:34:37;;;;;;;0.00;0.00;;;2.90;90.50;;;;;;4178014;28;20037;-60
2021/12/19 04:37:08;;;;;;;0.00;0.00;;;2.90;90.40;;;;;;4177760;28;20106;-58
2021/12/19 04:39:51;;;;;;;0.00;0.00;;;3.00;90.40;;;;;;4191645;28;20935;-60
2021/12/19 04:43:11;;;;;;;0.00;0.00;;;3.10;90.40;;;;;;4177359;28;20060;-61
2021/12/19 05:00:55;;;;;;;0.00;0.00;;;2.80;91.10;;;;;;4177576;28;20622;-60
2021/12/19 05:06:03;;;;;;;0.00;0.00;;;2.80;91.30;;;;;;4191008;28;20379;-60
2021/12/19 05:16:29;;;;;;;0.00;0.00;;;2.90;91.20;;;;;;4177499;28;20075;-61
2021/12/19 05:18:54;;;;;;;0.00;0.00;;;2.90;91.20;;;;;;4177476;28;20053;-60
2021/12/19 05:21:21;;;;;;;0.00;0.00;;;2.90;91.10;;;;;;4191060;28;20127;-60
2021/12/19 05:26:06;;;;;;;0.00;0.00;;;3.00;91.10;;;;;;4177059;28;20418;-60
2021/12/19 05:28:30;;;;;;;0.00;0.00;;;3.00;91.10;;;;;;4177437;28;20044;-60
2021/12/19 05:30:52;;;;;;;0.00;0.00;;;3.00;91.10;;;;;;4177170;28;20049;-60
2021/12/19 05:33:15;;;;;;;0.00;0.00;;;3.00;91.10;;;;;;4177230;28;20557;-60
2021/12/19 05:46:25;;;;;;;0.00;0.00;;;3.10;91.00;;;;;;4176855;28;20039;-60
2021/12/19 05:48:47;;;;;;;0.00;0.00;;;3.10;90.80;;;;;;4177029;28;20151;-60
2021/12/19 05:51:10;;;;;;;0.00;0.00;;;3.20;90.70;;;;;;4177037;28;20037;-60
2021/12/19 05:53:32;;;;;;;0.00;0.00;;;3.20;90.70;;;;;;4177042;28;20077;-60
2021/12/19 05:55:56;;;;;;;0.00;0.00;;;3.20;90.70;;;;;;4190696;28;20489;-61
2021/12/19 05:58:18;;;;;;;0.00;0.00;;;3.30;90.60;;;;;;4176967;28;20052;-60
2021/12/19 06:00:41;;;;;;;0.00;0.00;;;3.20;90.40;;;;;;4178111;28;20041;-60
2021/12/19 06:03:04;;;;;;;0.00;0.00;;;3.10;90.50;;;;;;4180156;28;20064;-60
2021/12/19 06:05:27;;;;;;;0.00;0.00;;;3.20;90.60;;;;;;4180247;28;20133;-61
2021/12/19 06:07:49;;;;;;;0.00;0.00;;;3.10;90.50;;;;;;4165650;28;20049;-61
2021/12/19 06:10:12;;;;;;;0.00;0.00;;;3.10;90.50;;;;;;4163700;28;20175;-61
2021/12/19 06:12:34;;;;;;;0.00;0.00;;;3.10;90.60;;;;;;4163459;28;20057;-60
2021/12/19 06:14:58;;;;;;;0.00;0.00;;;3.00;90.50;;;;;;4150319;28;20549;-60
2021/12/19 06:17:21;;;;;;;0.00;0.00;;;2.80;91.00;;;;;;4163662;28;20140;-61
2021/12/19 06:19:43;;;;;;;0.00;0.00;;;2.80;91.10;;;;;;4163517;28;20064;-61
2021/12/19 06:22:06;;;;;;;0.00;0.00;;;2.70;91.10;;;;;;4162839;28;20096;-61
2021/12/19 06:24:28;;;;;;;0.00;0.00;;;2.80;91.20;;;;;;4163472;28;20045;-60
2021/12/19 06:26:51;;;;;;;0.00;0.00;;;2.90;91.10;;;;;;4177479;28;20720;-60
2021/12/19 06:29:13;;;;;;;0.00;0.00;;;2.90;91.10;;;;;;4177266;28;20063;-60
2021/12/19 06:31:36;;;;;;;0.00;0.00;;;3.00;90.90;;;;;;4163015;28;20103;-60
2021/12/19 06:33:58;;;;;;;0.00;0.00;;;2.90;90.80;;;;;;4179482;28;20439;-60
2021/12/19 06:36:21;;;;;;;0.00;0.00;;;2.80;90.90;;;;;;4179854;28;20087;-60
2021/12/19 06:38:44;;;;;;;0.00;0.00;;;2.70;91.10;;;;;;4193657;28;20540;-60
2021/12/19 06:41:06;;;;;;;0.00;0.00;;;2.80;91.10;;;;;;4179396;28;20160;-60
2021/12/19 06:43:30;;;;;;;0.00;0.00;;;2.60;91.10;;;;;;4179504;28;20451;-59
2021/12/19 06:45:55;;;;;;;0.00;0.00;;;2.50;91.40;;;;;;4179329;28;20415;-60
2021/12/19 06:48:19;;;;;;;0.00;0.00;;;2.40;91.60;;;;;;4179618;28;20041;-59
2021/12/19 06:50:41;;;;;;;0.00;0.00;;;2.40;91.70;;;;;;4179368;28;20044;-59
2021/12/19 06:53:04;;;;;;;0.00;0.00;;;2.40;91.80;;;;;;4179383;28;20054;-61
2021/12/19 06:55:26;;;;;;;0.00;0.00;;;2.50;91.80;;;;;;4179358;28;20624;-60
2021/12/19 06:57:49;;;;;;;0.00;0.00;;;2.60;91.60;;;;;;4179167;28;20082;-61
2021/12/19 07:00:18;;;;;;;0.00;0.00;;;2.60;91.50;;;;;;4193290;28;20051;-59
2021/12/19 07:02:42;;;;;;;0.00;0.00;;;2.60;91.60;;;;;;4179430;28;20128;-60
2021/12/19 07:05:05;;;;;;;0.00;0.00;;;2.70;91.30;;;;;;4193306;28;20064;-60
2021/12/19 07:07:29;;;;;;;0.00;0.00;;;2.60;91.40;;;;;;4179290;28;20127;-59
2021/12/19 07:09:53;;;;;;;0.00;0.00;;;2.60;91.50;;;;;;4162696;28;20112;-60
2021/12/19 07:12:16;;;;;;;0.00;0.00;;;2.50;91.60;;;;;;4161523;28;20049;-60
2021/12/19 07:14:39;;;;;;;0.00;0.00;;;2.50;91.70;;;;;;4162692;28;20049;-60
2021/12/19 07:17:02;;;;;;;0.00;0.00;;;2.40;91.70;;;;;;4162888;28;20046;-60
2021/12/19 07:19:24;;;;;;;0.00;0.00;;;2.40;91.80;;;;;;4162803;28;20050;-61
2021/12/19 07:21:46;;;;;;;0.00;0.00;;;2.40;91.90;;;;;;4162260;28;20482;-60
2021/12/19 07:24:09;;;;;;;0.00;0.00;;;2.40;91.90;;;;;;4162330;28;20669;-61
2021/12/19 07:26:32;;;;;;;0.00;0.00;;;2.30;92.10;;;;;;4148929;28;20046;-60
2021/12/19 07:28:54;;;;;;;0.00;0.00;;;2.20;92.30;;;;;;4162523;28;20530;-60
2021/12/19 07:31:21;;;;;;;0.00;0.00;;;2.30;92.30;;;;;;4175992;28;20135;-59
2021/12/19 07:33:45;;;;;;;0.00;0.00;;;2.30;92.20;;;;;;4162366;28;20045;-59
2021/12/19 07:36:07;;;;;;;0.00;0.00;;;2.20;92.30;;;;;;4161362;28;20087;-60
2021/12/19 07:38:36;;;;;;;0.00;0.00;;;2.20;92.40;;;;;;4162027;28;20052;-60
2021/12/19 07:40:59;;;;;;;0.00;0.00;;;2.10;92.60;;;;;;4159048;28;20048;-60
2021/12/19 07:43:21;;;;;;;0.00;0.00;;;2.00;92.60;;;;;;4165545;28;20140;-60
2021/12/19 07:45:44;;;;;;;0.00;0.00;;;2.10;92.70;;;;;;4162516;28;20041;-59
2021/12/19 07:48:06;;;;;;;0.00;0.00;;;2.10;92.70;;;;;;4175710;28;20057;-59
2021/12/19 07:50:30;;;;;;;0.00;0.00;;;2.00;92.70;;;;;;4162246;28;20080;-61
2021/12/19 07:52:53;;;;;;;0.00;0.00;;;1.90;92.90;;;;;;4148623;28;20423;-59
2021/12/19 07:55:16;;;;;;;0.00;0.00;;;2.00;93.00;;;;;;4162109;28;20089;-59
2021/12/19 07:57:40;;;;;;;0.00;0.00;;;2.00;93.00;;;;;;4190228;28;20041;-59
2021/12/19 08:00:05;;;;;;;0.00;0.00;;;2.10;92.90;;;;;;4175974;28;20079;-59
2021/12/19 08:02:33;;;;;;;0.00;0.00;;;2.10;92.70;;;;;;4175719;28;20576;-60
2021/12/19 08:04:55;;;;;;;0.00;0.00;;;2.20;92.60;;;;;;4175777;28;20284;-60
2021/12/19 08:07:23;;;;;;;0.00;0.00;;;2.20;92.70;;;;;;4161916;28;20099;-60
2021/12/19 08:10:13;;;;;;;0.00;0.00;;;2.10;92.60;;;;;;4162091;28;20572;-60
2021/12/19 08:12:35;;;;;;;0.00;0.00;;;2.10;92.60;;;;;;4178033;28;20528;-60
2021/12/19 08:14:58;;;;;;;0.00;0.00;;;2.00;92.80;;;;;;4178416;28;20060;-60
2021/12/19 08:17:21;;;;;;;0.00;0.00;;;2.00;92.80;;;;;;4165340;28;20631;-59
2021/12/19 08:19:44;;;;;;;0.00;0.00;;;2.00;92.70;;;;;;4161292;28;20526;-58
2021/12/19 08:22:07;;;;;;;0.00;0.00;;;2.10;92.70;;;;;;4147546;28;20128;-62
2021/12/19 08:24:29;;;;;;;0.00;0.00;;;2.10;92.60;;;;;;4161503;28;20499;-60
2021/12/19 08:26:52;;;;;;;0.00;0.00;;;2.00;92.70;;;;;;4161702;28;20049;-59
2021/12/19 08:29:14;;;;;;;0.00;0.00;;;2.00;92.80;;;;;;4161593;28;20056;-60
2021/12/19 08:31:37;;;;;;;0.00;0.00;;;2.00;92.70;;;;;;4161174;28;20053;-59
2021/12/19 08:34:00;;;;;;;0.00;0.00;;;1.90;92.90;;;;;;4163644;28;20076;-60
2021/12/19 08:36:23;;;;;;;0.00;0.00;;;1.90;92.80;;;;;;4164223;28;20136;-60
2021/12/19 08:38:47;;;;;;;0.00;0.00;;;2.00;92.90;;;;;;4178066;28;20066;-60
2021/12/19 08:41:09;;;;;;;0.00;0.00;;;1.90;93.20;;;;;;4177792;28;20116;-63
2021/12/19 08:43:32;;;;;;;0.00;0.00;;;1.90;93.10;;;;;;4191737;28;20098;-63
2021/12/19 08:45:54;;;;;;;0.00;0.00;;;2.10;92.90;;;;;;4162493;28;20107;-66
2021/12/19 08:48:18;;;;;;;0.00;0.00;;;2.00;92.80;;;;;;4161223;28;20069;-68
2021/12/19 08:50:40;;;;;;;0.00;0.00;;;1.90;92.90;;;;;;4147755;28;20095;-66
2021/12/19 08:53:04;;;;;;;0.00;0.00;;;1.90;93.00;;;;;;4161462;28;20557;-66
2021/12/19 08:55:29;;;;;;;0.00;0.00;;;2.00;92.90;;;;;;4147636;28;20045;-66
2021/12/19 08:57:52;;;;;;;0.00;0.00;;;2.00;92.80;;;;;;4174969;28;20049;-64
2021/12/19 09:00:17;;;;;;;0.00;0.00;;;2.00;92.60;;;;;;4147841;28;20042;-63
2021/12/19 09:02:45;;;;;;;0.00;0.00;;;2.00;92.70;;;;;;4147630;28;20084;-69
2021/12/19 09:05:08;;;;;;;0.00;0.00;;;2.10;92.70;;;;;;4161349;28;19921;-68
2021/12/19 09:07:31;;;;;;;0.00;0.00;;;2.20;92.50;;;;;;4161220;28;20061;-64
2021/12/19 09:09:53;;;;;;;0.00;0.00;;;2.40;92.30;;;;;;4174692;28;20135;-65
2021/12/19 09:12:16;;;;;;;0.00;0.00;;;2.40;92.10;;;;;;4174573;28;20045;-64
2021/12/19 09:14:39;;;;;;;0.00;0.00;;;2.40;92.10;;;;;;4161033;28;20053;-67
2021/12/19 09:17:02;;;;;;;0.00;0.00;;;2.50;92.00;;;;;;4174803;28;20127;-62
2021/12/19 09:19:25;;;;;;;0.00;0.00;;;2.50;92.00;;;;;;4161009;28;20067;-65
2021/12/19 09:21:49;;;;;;;0.00;0.00;;;2.40;92.00;;;;;;4160116;28;20046;-64
2021/12/19 09:24:11;;;;;;;0.00;0.00;;;2.20;92.10;;;;;;4160963;28;20049;-64
2021/12/19 09:26:34;;;;;;;0.00;0.00;;;2.20;92.20;;;;;;4147438;28;20056;-66
2021/12/19 09:28:56;;;;;;;0.00;0.00;;;2.20;92.40;;;;;;4160891;28;20107;-66
2021/12/19 09:31:22;;;;;;;0.00;0.00;;;2.20;92.30;;;;;;4174581;28;20498;-66
2021/12/19 09:33:44;;;;;;;0.00;0.00;;;2.30;92.20;;;;;;4174761;28;20457;-67
2021/12/19 09:36:07;;;;;;;0.00;0.00;;;2.10;92.10;;;;;;4178653;28;20115;-64
2021/12/19 09:38:30;;;;;;;0.00;0.00;;;2.10;92.30;;;;;;4180787;28;20075;-66
2021/12/19 09:41:01;;;;;;;0.00;0.00;;;2.10;92.20;;;;;;4194619;28;20080;-70
2021/12/19 09:43:42;;;;;;;0.00;0.00;;;2.00;92.40;;;;;;4180731;28;20049;-66
2021/12/19 09:46:04;;;;;;;0.00;0.00;;;2.10;92.50;;;;;;4152590;28;20068;-69
2021/12/19 09:48:27;;;;;;;0.00;0.00;;;2.10;92.30;;;;;;4178170;28;20079;-69
2021/12/19 09:50:50;;;;;;;0.00;0.00;;;2.30;92.20;;;;;;4150483;28;20530;-64
2021/12/19 09:53:12;;;;;;;0.00;0.00;;;2.40;92.00;;;;;;4178033;28;20052;-67
2021/12/19 09:55:35;;;;;;;0.00;0.00;;;2.30;92.10;;;;;;4164060;28;20057;-65
2021/12/19 09:57:59;;;;;;;0.00;0.00;;;2.40;92.10;;;;;;4163772;28;20049;-65
2021/12/19 10:00:23;;;;;;;0.00;0.00;;;2.40;92.00;;;;;;4163915;28;20048;-68
2021/12/19 10:02:49;;;;;;;0.00;0.00;;;2.60;91.90;;;;;;4164142;28;20045;-66
2021/12/19 10:05:25;;;;;;;0.00;0.00;;;2.50;91.80;;;;;;4150311;28;20125;-68
2021/12/19 10:08:01;;;;;;;0.00;0.00;;;2.50;91.80;;;;;;4163593;28;20053;-63
2021/12/19 10:10:54;;;;;;;0.00;0.00;;;2.70;91.70;;;;;;4177651;28;20055;-68
2021/12/19 10:13:16;;;;;;;0.00;0.00;;;2.90;91.40;;;;;;4163772;28;20057;-66
2021/12/19 10:15:47;;;;;;;0.00;0.00;;;2.90;91.10;;;;;;4166915;28;20048;-65
2021/12/19 10:18:15;;;;;;;0.00;0.00;;;2.70;91.20;;;;;;4163740;28;20143;-66
2021/12/19 10:20:49;;;;;;;0.00;0.00;;;2.60;91.50;;;;;;4177312;28;20044;-63
2021/12/19 10:23:22;;;;;;;0.00;0.00;;;2.70;91.50;;;;;;4163502;28;20415;-65
2021/12/19 10:25:55;;;;;;;0.00;0.00;;;2.70;91.50;;;;;;4163728;28;20526;-66
2021/12/19 10:28:17;;;;;;;0.00;0.00;;;2.60;91.50;;;;;;4161469;28;20517;-71
2021/12/19 10:30:49;;;;;;;0.00;0.00;;;2.70;91.60;;;;;;4163406;28;20048;-63
2021/12/19 10:33:17;;;;;;;0.00;0.00;;;2.80;91.50;;;;;;4175541;28;20123;-62
2021/12/19 10:35:46;;;;;;;0.00;0.00;;;3.00;91.30;;;;;;4164156;28;20045;-63
2021/12/19 10:38:17;;;;;;;0.00;0.00;;;3.20;91.10;;;;;;4179737;28;20123;-64
2021/12/19 10:40:48;;;;;;;0.00;0.00;;;3.30;90.90;;;;;;4179579;28;20052;-62
2021/12/19 10:43:16;;;;;;;0.00;0.00;;;3.50;90.70;;;;;;4180793;28;20045;-61
2021/12/19 10:45:52;;;;;;;0.00;0.00;;;3.40;90.50;;;;;;4193637;28;20418;-62
2021/12/19 10:48:21;;;;;;;0.00;0.00;;;3.20;90.50;;;;;;4161636;28;20050;-62
2021/12/19 10:51:02;;;;;;;0.00;0.00;;;3.10;90.60;;;;;;4162868;28;20139;-62
2021/12/19 10:53:39;;;;;;;0.00;0.00;;;3.00;90.70;;;;;;4163672;28;20157;-62
2021/12/19 10:56:13;;;;;;;0.00;0.00;;;3.00;90.70;;;;;;4162906;28;20475;-62
2021/12/19 10:58:42;;;;;;;0.00;0.00;;;2.70;90.90;;;;;;4163247;28;20076;-62
2021/12/19 11:01:08;;;;;;;0.00;0.00;;;2.60;91.20;;;;;;4162779;28;20081;-62
2021/12/19 11:03:56;;;;;;;0.00;0.00;;;2.80;91.20;;;;;;4149406;28;20041;-62
2021/12/19 11:06:23;;;;;;;0.00;0.00;;;2.80;91.10;;;;;;4176384;28;20541;-63
2021/12/19 11:08:46;;;;;;;0.00;0.00;;;2.70;91.10;;;;;;4176712;28;20045;-62
2021/12/19 11:11:09;;;;;;;0.00;0.00;;;2.80;91.20;;;;;;4176434;28;20132;-63
2021/12/19 11:13:32;;;;;;;0.00;0.00;;;2.90;91.10;;;;;;4162957;28;20044;-63
2021/12/19 11:15:54;;;;;;;0.00;0.00;;;3.20;91.00;;;;;;4162488;28;20061;-63
2021/12/19 11:18:17;;;;;;;0.00;0.00;;;3.30;90.60;;;;;;4149232;28;20061;-63
2021/12/19 11:20:42;;;;;;;0.00;0.00;;;3.30;90.50;;;;;;4162387;28;20088;-63
2021/12/19 11:23:05;;;;;;;0.00;0.00;;;3.30;90.40;;;;;;4162698;28;20132;-63
2021/12/19 11:25:28;;;;;;;0.00;0.00;;;3.20;90.70;;;;;;4160039;28;20046;-62
2021/12/19 11:27:50;;;;;;;0.00;0.00;;;3.10;90.70;;;;;;4192711;28;20444;-63
2021/12/19 11:30:14;;;;;;;0.00;0.00;;;3.10;90.70;;;;;;4175366;28;20067;-62
2021/12/19 11:33:10;;;;;;;0.00;0.00;;;3.10;90.80;;;;;;4162627;28;20091;-62
2021/12/19 11:35:36;;;;;;;0.00;0.00;;;3.20;90.80;;;;;;4176312;28;20053;-63
2021/12/19 11:38:02;;;;;;;0.00;0.00;;;3.30;90.60;;;;;;4178476;28;20110;-62
2021/12/19 11:40:26;;;;;;;0.00;0.00;;;3.30;90.50;;;;;;4165083;28;20048;-63
2021/12/19 11:42:49;;;;;;;0.00;0.00;;;3.30;90.50;;;;;;4178944;28;20184;-65
2021/12/19 11:47:51;;;;;;;0.00;0.00;;;3.40;90.50;;;;;;4178901;28;20103;-62
2021/12/19 11:50:27;;;;;;;0.00;0.00;;;3.30;90.40;;;;;;4178425;28;20053;-64
2021/12/19 11:52:59;;;;;;;0.00;0.00;;;3.30;90.40;;;;;;4178797;28;20116;-62
2021/12/19 11:55:37;;;;;;;0.00;0.00;;;3.10;90.60;;;;;;4178663;28;20187;-63
2021/12/19 11:58:08;;;;;;;0.00;0.00;;;3.00;90.80;;;;;;4191872;28;20099;-64
2021/12/19 12:00:52;;;;;;;0.00;0.00;;;3.00;90.80;;;;;;4164979;28;20461;-62
2021/12/19 12:03:15;;;;;;;0.00;0.00;;;3.00;90.90;;;;;;4156842;28;20049;-62
2021/12/19 12:05:41;;;;;;;0.00;0.00;;;3.00;90.90;;;;;;4178366;28;20103;-63
2021/12/19 12:08:07;;;;;;;0.00;0.00;;;3.10;90.90;;;;;;4178064;28;20473;-62
2021/12/19 12:13:23;;;;;;;0.00;0.00;;;3.20;90.80;;;;;;4178311;28;20434;-62
2021/12/19 12:15:45;;;;;;;0.00;0.00;;;3.10;90.80;;;;;;4178351;28;20084;-63
2021/12/19 12:18:34;;;;;;;0.00;0.00;;;3.10;90.70;;;;;;4191719;28;20045;-62
2021/12/19 12:20:57;;;;;;;0.00;0.00;;;3.20;90.90;;;;;;4177803;28;20041;-62
2021/12/19 12:23:25;;;;;;;0.00;0.00;;;3.20;90.80;;;;;;4178269;28;20409;-61
2021/12/19 12:25:48;;;;;;;0.00;0.00;;;3.10;90.80;;;;;;4177919;28;20570;-68
2021/12/19 12:28:15;;;;;;;0.00;0.00;;;3.10;90.90;;;;;;4178148;28;20037;-71
2021/12/19 12:30:45;;;;;;;0.00;0.00;;;3.00;91.00;;;;;;4177932;28;20224;-63
2021/12/19 12:33:11;;;;;;;0.00;0.00;;;3.00;91.10;;;;;;4164752;28;20049;-63
2021/12/19 12:35:38;;;;;;;0.00;0.00;;;3.00;91.10;;;;;;4177824;28;20131;-64
2021/12/19 12:38:02;;;;;;;0.00;0.00;;;3.10;91.00;;;;;;4177651;28;20099;-72
2021/12/19 12:40:30;;;;;;;0.00;0.00;;;3.10;91.00;;;;;;4164411;28;20049;-72
2021/12/19 12:43:12;;;;;;;0.00;0.00;;;3.10;91.00;;;;;;4177949;28;20066;-71
2021/12/19 12:45:56;;;;;;;0.00;0.00;;;3.20;90.90;;;;;;4191748;28;20083;-67
2021/12/19 12:48:29;;;;;;;0.00;0.00;;;3.10;91.00;;;;;;4177805;28;20079;-71
2021/12/19 12:50:53;;;;;;;0.00;0.00;;;3.00;91.20;;;;;;4177400;28;20067;-73
2021/12/19 12:53:38;;;;;;;0.00;0.00;;;3.00;91.10;;;;;;4164173;28;20041;-73
2021/12/19 12:56:06;;;;;;;0.00;0.00;;;3.10;91.00;;;;;;4150039;28;20049;-66
2021/12/19 12:58:35;;;;;;;0.00;0.00;;;3.10;90.90;;;;;;4163899;28;20045;-70
2021/12/19 13:01:22;;;;;;;0.00;0.00;;;3.20;91.00;;;;;;4163677;28;20072;-70
2021/12/19 13:04:01;;;;;;;0.00;0.00;;;3.40;90.70;;;;;;4191671;28;20053;-69
2021/12/19 13:06:49;;;;;;;0.00;0.00;;;3.40;90.70;;;;;;4172116;28;20045;-68
2021/12/19 13:09:20;;;;;;;0.00;0.00;;;3.30;90.70;;;;;;4160977;28;20411;-74
2021/12/19 13:11:45;;;;;;;0.00;0.00;;;3.40;90.60;;;;;;4160487;28;20427;-62
2021/12/19 13:14:21;;;;;;;0.00;0.00;;;3.50;90.40;;;;;;4160790;28;20049;-65
2021/12/19 13:16:53;;;;;;;0.00;0.00;;;3.40;90.40;;;;;;4147302;28;20063;-62
2021/12/19 13:19:41;;;;;;;0.00;0.00;;;3.40;90.50;;;;;;4160914;28;20061;-66
2021/12/19 13:22:18;;;;;;;0.00;0.00;;;3.40;90.40;;;;;;4176947;28;20056;-62
2021/12/19 13:24:41;;;;;;;0.00;0.00;;;3.40;90.40;;;;;;4191279;28;20040;-63
2021/12/19 13:27:04;;;;;;;0.00;0.00;;;3.30;90.40;;;;;;4177190;28;20562;-64
2021/12/19 13:29:26;;;;;;;0.00;0.00;;;3.20;90.60;;;;;;4163877;28;20469;-65
2021/12/19 13:31:48;;;;;;;0.00;0.00;;;3.20;90.60;;;;;;4176867;28;20045;-64
2021/12/19 13:34:14;;;;;;;0.00;0.00;;;3.30;90.50;;;;;;4177613;28;20033;-64
2021/12/19 13:36:36;;;;;;;0.00;0.00;;;3.30;90.60;;;;;;4177187;28;20057;-66
2021/12/19 13:38:59;;;;;;;0.00;0.00;;;3.40;90.60;;;;;;4177331;28;20164;-64
2021/12/19 13:41:22;;;;;;;0.00;0.00;;;3.60;90.50;;;;;;4177162;28;20053;-64
2021/12/19 13:43:44;;;;;;;0.00;0.00;;;3.60;90.30;;;;;;4177486;28;20639;-64
2021/12/19 13:46:10;;;;;;;0.00;0.00;;;3.60;90.30;;;;;;4176840;28;20128;-64
2021/12/19 13:48:56;;;;;;;0.00;0.00;;;3.40;90.20;;;;;;4191399;28;20045;-63
2021/12/19 13:51:25;;;;;;;0.00;0.00;;;3.20;90.60;;;;;;4164376;28;20049;-64
2021/12/19 13:53:54;;;;;;;0.00;0.00;;;3.30;90.80;;;;;;4160946;28;20055;-64